Regionale Übersicht

METAR und TAF

Samstag, 14. Dezember 2019 - 14:25 Uhr

Beobachtete horizontale meteorologische Sicht an ausgewählten Flughäfen. Die vollständigen METARs und Flugwettervorhersagen (TAFs) sind verfügbar, wenn Sie auf das entsprechende Symbol mit der ICAO-Flughafenkennung klicken.

  • Luxemburg (ELLX)

    Taf: TAF ELLX 141100Z 1412/1518 26017KT 9999 BKN025 TEMPO 1412/1418 26020G35KT SHRA BKN012 SCT020CB BECMG 1418/1420 24010KT BECMG 1501/1503 25015KT TEMPO 1503/1509 26025G40KT 4000 SHRA BKN008CB=

    Metar: METAR ELLX 141250Z 24019G31KT 210V270 9999 -SHRA FEW016 SCT025 BKN035 07/03 Q0998 TEMPO 26025G35KT SHRA=

  • Spangdahlem (ETAD)

    Taf: TAF AMD ETAD 141047Z 1410/1513 26015G25KT 9000 -SHRA SCT025 BKN035 620404 510004 QNH2907INS TEMPO 1410/1413 26020G35KT OVC025 520005 BECMG 1412/1413 25012G25KT 9000 -RA SCT010 BKN020 620307 QNH2939INS TEMPO 1413/1416 26020G35KT 520005 BECMG 1417/1418 20010G15KT 9999 NSW BKN010 QNH2948INS BECMG 1502/1503 22010G15KT 9000 -RA BKN005 QNH2943INS TX08/1506Z TN04/1410Z=

    Metar: nil

  • Metz/Nancy (LFJL)

    Taf: TAF LFJL 141100Z 1412/1512 24020G30KT 9999 BKN030 TEMPO 1414/1418 SHRA BECMG 1418/1421 20010KT BECMG 1422/1424 21020G32KT TEMPO 1500/1506 4000 RA BKN014 TEMPO 1506/1508 25020G38KT BECMG 1508/1511 24012G22KT=

    Metar: nil

  • Saarbrücken/Intl (EDDR)

    Taf: TAF EDDR 141100Z 1412/1512 22020G35KT 9999 BKN020 BECMG 1412/1414 23015G30KT PROB30 TEMPO 1414/1416 4000 RADZ BECMG 1416/1418 22010KT TEMPO 1416/1424 BKN012 TEMPO 1500/1506 2500 RADZ BKN004 TEMPO 1506/1512 24020G35KT 4000 SHRA BKN008TCU=

    Metar: nil

  • Hahn (EDFH)

    Taf: TAF EDFH 141100Z 1412/1512 25020G35KT 9999 SCT013 BKN020 TEMPO 1414/1418 2500 RADZ BKN004 BECMG 1418/1420 25015G25KT TEMPO 1418/1501 BKN006 BECMG 1421/1423 21010KT BECMG 1501/1503 25020G35KT TEMPO 1501/1508 1200 RADZ BKN003 TEMPO 1508/1512 BKN009=

    Metar: nil

  • Ramstein (ETAR)

    Taf: TAF ETAR 141007Z 1410/1516 25015G25KT 9000 -SHRA BKN025 610302 510004 QNH2940INS BECMG 1414/1415 24020G30KT 9000 -SHRA BKN030 610405 520004 QNH2949INS BECMG 1418/1419 24010G15KT 9999 NSW SCT030 QNH2956INS BECMG 1423/1424 22012G25KT 9000 -RA BKN020 OVC030 620609 510004 QNH2947INS BECMG 1504/1505 23015G30KT 9000 -SHRA BKN020 610709 520004 QNH2948INS TEMPO 1505/1507 24020G35KT 530004 BECMG 1507/1508 25010G20KT 9000 -SHRA BKN030 610604 510003 QNH2958INS TX10/1505Z TN05/1421Z=

    Metar: nil

  • Nancy/Ochey (LFSO)

    Taf: TAF LFSO 140800Z NIL=

    Metar: nil

  • Liège Bierset (EBLG)

    Taf: TAF EBLG 141110Z 1412/1518 24015G25KT 9999 FEW014TCU SCT030 PROB40 TEMPO 1412/1416 25022G37KT PROB30 TEMPO 1412/1414 4000 SHRA BKN012 BECMG 1418/1420 19011KT BECMG 1501/1504 24015G25KT PROB30 TEMPO 1501/1506 4000 SHRA RA BKN012 PROB40 TEMPO 1504/1507 25024G38KT BECMG 1514/1516 20012KT=

    Metar: nil

  • Saint-Dizier (LFSI)

    Taf: TAF LFSI 140800Z 1409/1509 25015G30KT 9999 SCT020 TEMPO 1409/1415 3000 -SHRA BKN025TCU BECMG 1422/1424 4000 RA BKN010 TEMPO 1502/1509 23020G40KT=

    Metar: nil

  • Maastricht/Zuid Limburg (EHBK)

    Taf: TAF EHBK 141123Z 1412/1518 24017G29KT 9999 SCT030 PROB40 TEMPO 1413/1417 24023G37KT 6000 RA SHRA BKN012 SCT020CB BECMG 1418/1421 21012KT BECMG 1503/1506 24017KT PROB40 TEMPO 1504/1507 24025G35KT 4000 SHRA RA SCT012CB BKN015 BECMG 1515/1518 21012KT=

    Metar: nil

  • Köln/Köln-Bonn (EDDK)

    Taf: TAF EDDK 141100Z 1412/1518 25015G25KT 9999 SCT025 PROB40 TEMPO 1414/1418 26020G35KT SHRA BKN015TCU BECMG 1418/1421 16008KT PROB30 TEMPO 1503/1506 24015G25KT SHRA BKN015TCU BECMG 1505/1508 23012KT BECMG 1516/1518 17007KT=

    Metar: METAR EDDK 141250Z 25014KT 9999 SCT042 07/01 Q0995 TEMPO 26020G30KT SHRA BKN015TCU=

  • Charleroi (EBCI)

    Taf: TAF EBCI 141110Z 1412/1518 25015G25KT 9999 FEW014TCU SCT030 PROB40 TEMPO 1412/1416 25022G37KT PROB30 TEMPO 1412/1414 4000 SHRA BKN012 BECMG 1417/1419 19011KT BECMG 1500/1503 24015G25KT PROB30 TEMPO 1500/1505 4000 SHRA RA BKN012 PROB40 TEMPO 1503/1506 25024G38KT BECMG 1513/1515 21012KT=

    Metar: nil

  • Wiesbaden (ETOU)

    Taf: TAF AMD ETOU 131838Z 1318/1418 28012G18KT 8000 -SHRA BKN015 620408 QNH2903INS BECMG 1321/1322 25009KT 9999 NSW BKN015 620309 QNH2893INS BECMG 1403/1404 VRB06KT 8000 -SHRA BKN008 620206 QNH2900INS BECMG 1406/1407 24010G20KT 8000 -SHRA BKN008 620503 QNH2903INS BECMG 1410/1411 25012G20KT 9999 NSW SCT030 QNH2932INS TX07/1412Z TN01/1404Z LAST NO AMDS AFT 1319 NEXT 1512=

    Metar: nil

  • Karlsruhe/Baden-Baden (EDSB)

    Taf: TAF EDSB 141100Z 1412/1512 22015G25KT 9999 BKN020 BECMG 1419/1421 21010KT TEMPO 1502/1507 22015G30KT 4000 RADZ BKN010 TEMPO 1507/1512 4000 SHRA BKN012TCU=

    Metar: nil

  • Chalons/Vatry (LFOK)

    Taf: TAF LFOK 141100Z 1412/1512 23015KT 9999 BKN030 TEMPO 1412/1416 26020G35KT 3000 SHRA BKN030CB TEMPO 1421/1424 3000 RA BKN007 BKN013 TEMPO 1500/1508 23020G35KT SHRA BKN020TCU=

    Metar: nil

  • Frankfurt/Main (EDDF)

    Taf: TAF EDDF 141100Z 1412/1518 22015G30KT 9999 BKN030 BECMG 1418/1420 20008KT TEMPO 1504/1509 21015G25KT 4000 RADZ BKN008=

    Metar: METAR EDDF 141250Z 24019KT 9999 FEW030 08/02 Q0997 NOSIG=

  • Brüssel (EBBR)

    Taf: TAF EBBR 141110Z 1412/1518 24015G25KT 9999 FEW016TCU SCT035 PROB40 TEMPO 1412/1416 25022G37KT PROB30 TEMPO 1412/1414 4000 SHRA BECMG 1417/1419 18011KT BECMG 1500/1503 24015G25KT PROB30 TEMPO 1500/1505 4000 SHRA RA BKN014 PROB40 TEMPO 1504/1507 25024G38KT BECMG 1513/1515 22013KT=

    Metar: METAR EBBR 141250Z 22015KT 7000 -SHRA SCT015 07/05 Q0993 TEMPO 25023G40KT 4000 SHRA=

  • Düsseldorf (EDDL)

    Taf: TAF EDDL 141100Z 1412/1518 25015G25KT 9999 SCT025 PROB40 TEMPO 1414/1418 26020G35KT SHRA BKN020TCU BECMG 1419/1422 17010KT BECMG 1503/1506 23012KT PROB30 TEMPO 1503/1506 24020G30KT SHRA BKN015TCU BECMG 1506/1509 23015G25KT BECMG 1516/1518 19010KT=

    Metar: nil

  • Luxeuil (LFSX)

    Taf: TAF LFSX 140800Z NIL=

    Metar: nil

  • Eindhoven (EHEH)

    Taf: TAF EHEH 141133Z 1412/1518 24017G32KT 9999 SCT035 TEMPO 1413/1417 SCT012 BKN015 SCT020CB PROB30 TEMPO 1413/1417 25020G37KT 4000 RA SHRAGS SCT008 BKN012 SCT018CB BECMG 1416/1419 20012KT TEMPO 1503/1506 24017G35KT SCT012 BKN015 OVC030 PROB30 TEMPO 1503/1506 15017G40KT 4000 RA SHRAGS SCT008 SCT015CB BKN020=

    Metar: nil

  • Niederrhein (EDLV)

    Taf: TAF EDLV 141100Z 1412/1512 25015G25KT 9999 SCT025 PROB40 TEMPO 1412/1418 26020G35KT SHRA BKN020TCU BECMG 1419/1422 23010KT TEMPO 1503/1506 24020G30KT SHRA BKN012TCU BECMG 1506/1509 23015G25KT=

    Metar: nil

  • Dortmund/Wickede (EDLW)

    Taf: TAF EDLW 141100Z 1412/1512 25015G25KT 9999 BKN025 PROB40 TEMPO 1412/1418 26020G35KT SHRA BKN015TCU TEMPO 1420/1504 19010KT PROB30 TEMPO 1504/1507 24020G30KT SHRA BKN015TCU=

    Metar: nil

  • Stuttgart/Echterdingen (EDDS)

    Taf: TAF EDDS 141100Z 1412/1512 24015G30KT 9999 BKN030 BECMG 1414/1416 21010KT BECMG 1418/1420 20005KT PROB30 TEMPO 1500/1510 4000 RADZ BKN012 BECMG 1503/1505 24013KT TEMPO 1505/1510 25015G25KT=

    Metar: METAR EDDS 141250Z 24019KT 190V270 9999 FEW024 08/01 Q1001 NOSIG=

  • Basel-Mühlhausen (LFSB)

    Taf: TAF LFSB 141100Z 1412/1512 27015G30KT 9999 SCT030 SCT050 BECMG 1412/1414 24013KT TEMPO 1414/1418 24013G23KT PROB40 TEMPO 1417/1511 -SHRA FEW030TCU BKN050 TEMPO 1419/1501 18005KT BECMG 1501/1503 24015G25KT PROB40 TEMPO 1501/1504 24018G32KT=

    Metar: METAR LFSB 141300Z 24014KT 210V270 9999 FEW030 SCT230 11/00 Q1005 TEMPO 24013G23KT=

  • Lille (LFQQ)

    Taf: TAF LFQQ 141100Z 1412/1518 25015KT 9999 BKN030 TEMPO 1412/1414 27025G45KT 2000 SHRAGR BKN030CB TEMPO 1414/1416 29020G35KT 4000 SHRA BKN030TCU BECMG 1419/1421 19015KT TEMPO 1422/1501 4000 RA BKN013 TEMPO 1501/1507 24020G35KT 3000 SHRA BKN025CB TEMPO 1504/1506 25025G50KT=

    Metar: nil

  • Paris/Charles de Gaulle (LFPG)

    Taf: TAF LFPG 141100Z 1412/1518 24020G35KT 9999 BKN030 TX11/1503Z TN07/1419Z BECMG 1414/1416 24010G20KT CAVOK BECMG 1419/1421 BKN012 TEMPO 1421/1501 4000 RA BKN008 BECMG 1422/1424 24015G30KT BECMG 1508/1510 24015KT CAVOK BECMG 1516/1518 BKN015=

    Metar: nil

  • Paderborn/Lippstadt (EDLP)

    Taf: TAF EDLP 141100Z 1412/1512 25015G25KT 9999 BKN025 TEMPO 1412/1420 26020G35KT SHRA BKN012TCU BECMG 1419/1422 23010KT PROB30 TEMPO 1505/1508 24020G30KT SHRA BKN015TCU BECMG 1506/1509 23015G25KT=

    Metar: nil

  • Paris/Le Bourget (LFPB)

    Taf: TAF LFPB 141100Z 1412/1512 24020G35KT 9999 BKN030 BECMG 1414/1416 24010G20KT CAVOK BECMG 1419/1421 BKN012 TEMPO 1421/1501 4000 RA BKN008 BECMG 1422/1424 24015G30KT BECMG 1508/1510 24015KT CAVOK=

    Metar: METAR LFPB 141300Z AUTO 22015KT 9999 BKN025 BKN031 OVC045 10/06 Q1000 BECMG 24010G20KT=

  • Rotterdam (EHRD)

    Taf: TAF EHRD 141121Z 1412/1518 26022G32KT 9999 SCT025 TEMPO 1412/1417 7000 -SHRA FEW020CB PROB40 TEMPO 1413/1416 26025G37KT 4500 SHRAGS RA SCT020CB BKN025 BECMG 1418/1421 21015KT BECMG 1502/1505 25022G33KT TEMPO 1502/1505 26025G38KT 6000 SHRA RA SCT010 BKN014 SCT020CB BECMG 1508/1511 22016G26KT PROB30 TEMPO 1512/1518 23021G31KT 5000 SHRA TSRA SCT015 SCT020CB=

    Metar: nil

  • Zürich/Kloten (LSZH)

    Taf: TAF LSZH 141125Z 1412/1518 26017KT 9999 FEW025 BKN050 TX10/1414Z TN06/1506Z TX12/1514Z PROB40 TEMPO 1412/1414 SHRA BECMG 1412/1415 25007KT PROB30 TEMPO 1502/1518 RA=

    Metar: METAR LSZH 141250Z 25012KT 210V290 9999 SCT032 09/00 Q1005 NOSIG=

  • Oostende/Intl (EBOS)

    Taf: TAF EBOS 141110Z 1412/1518 26025G35KT 9999 FEW020TCU SCT040 PROB40 TEMPO 1412/1416 26030G45KT PROB30 TEMPO 1412/1413 4500 SHRA BECMG 1418/1420 18015G25KT BECMG 1501/1503 24020G32KT PROB30 TEMPO 1501/1504 4000 SHRA RA BKN014 PROB40 TEMPO 1503/1506 25027G42KT BECMG 1512/1514 20014KT=

    Metar: nil

  • Paris/Orly (LFPO)

    Taf: TAF LFPO 141100Z 1412/1518 24015G25KT 9999 BKN030 TEMPO 1412/1415 23017G35KT 4000 -SHRA BKN025 BECMG 1418/1421 20015G30KT -RA BKN012 TEMPO 1421/1507 20017G35KT 4000 RA BKN008 SCT020TCU BECMG 1507/1510 22012KT SCT025=

    Metar: nil

  • Beauvais (LFOB)

    Taf: TAF LFOB 141100Z 1412/1512 22015KT 9999 BKN030 TEMPO 1412/1414 26020G35KT 3000 SHRA BKN030TCU TEMPO 1420/1423 3000 RA BKN013 TEMPO 1423/1506 23020G35KT SHRA BKN030TCU=

    Metar: nil

  • Münster/Intl (EDDG)

    Taf: TAF EDDG 141100Z 1412/1512 25015G25KT 9999 SCT025 PROB30 TEMPO 1414/1418 26020G30KT SHRA BKN020TCU BECMG 1419/1422 20010KT PROB30 TEMPO 1504/1507 24020G30KT SHRA BKN012TCU BECMG 1507/1509 23015G25KT=

    Metar: METAR EDDG 141250Z 24018KT 9999 SCT023 SCT045 07/02 Q0990 NOSIG=

  • Illesheim (ETIK)

    Taf: TAF AMD ETIK 131931Z 1319/1421 23012G20KT 8000 -SHRA BKN010 620303 QNH2898INS BECMG 1322/1323 25012KT 9999 NSW BKN020 620302 QNH2915INS BECMG 1404/1405 20015G25KT 8000 -SN BKN010 620208 QNH2913INS BECMG 1405/1406 20015G25KT 8000 -SHRA BKN010 620208 QNH2914INS BECMG 1408/1409 27010G15KT 9999 NSW BKN010 620402 QNH2918INS TEMPO 1412/1416 25020G35KT BECMG 1417/1418 23015G25KT 8000 -SHRA BKN030 QNH2950INS TX06/1414Z TN01/1404Z LAST NO AMDS AFT 1319 NEXT 1523=

    Metar: nil

  • Duebendorf (LSMD)

    Taf: TAF LSMD 140925Z 1410/1516 29014G24KT 9999 SCT032 BKN068 TEMPO 1410/1412 28025G35KT SHRA PROB40 TEMPO 1413/1419 CAVOK BECMG 1412/1415 27008KT PROB30 TEMPO 1502/1509 RA=

    Metar: nil

  • Villacoublay (LFPV)

    Taf: TAF LFPV 140800Z 1409/1509 27018G28KT 9999 BKN040 TEMPO 1410/1414 3000 SHRA BKN020TCU TEMPO 1410/1413 3000 SHRA SCT014TCU BKN025 BECMG 1419/1421 21018G28KT 3000 RA BKN006 BECMG 1500/1502 9999 NSW BKN016 TEMPO 1502/1509 22020G34KT 3000 SHRA BKN014TCU BKN030=

    Metar: nil

  • Payerne (LSMP)

    Taf: TAF LSMP 140925Z 1410/1516 23015G25KT 9999 BKN040 BECMG 1418/1420 23010KT=

    Metar: nil

  • Amsterdam/Schipol (EHAM)

    Taf: TAF EHAM 141121Z 1412/1518 25022G33KT 9999 SCT025 TEMPO 1412/1417 7000 -SHRA -RA FEW020CB PROB40 TEMPO 1414/1417 26025G38KT 4500 SHRAGS RA SCT020CB BKN025 BECMG 1418/1421 21015KT BECMG 1502/1505 25023G34KT TEMPO 1502/1505 26026G39KT 6000 SHRA RA SCT012 BKN018 SCT020CB BECMG 1508/1511 22017G27KT PROB30 TEMPO 1513/1518 23022G32KT 5000 SHRA TSRA SCT015 SCT020CB=

    Metar: METAR EHAM 141255Z 24016KT 210V280 9999 FEW031 08/03 Q0988 NOSIG=

  • Emmen (LSME)

    Taf: TAF LSME 140925Z 1410/1516 28010KT 9999 SCT035 BKN045 TEMPO 1410/1412 25025G35KT SHRA PROB40 TEMPO 1413/1417 CAVOK=

    Metar: nil

  • Friedrichshafen (EDNY)

    Taf: TAF EDNY 141100Z 1412/1512 25020G35KT 9999 BKN025 BECMG 1413/1415 24012KT BECMG 1422/1424 16003KT TEMPO 1500/1503 RA BKN010 BECMG 1504/1506 24008KT=

    Metar: nil

  • Alpnach (LSMA)

    Taf: TAF LSMA 140925Z 1410/1516 24010G20KT 9999 BKN052 TEMPO 1410/1413 23025G35KT SHRA PROB30 TEMPO 1413/1417 CAVOK BECMG 1417/1421 23005KT=

    Metar: nil

  • Meiringen (LSMM)

    Taf: TAF LSMM 140925Z 1410/1516 28008KT 9999 FEW020 BKN035 TEMPO 1410/1414 28025G35KT=

    Metar: nil

  • Nürnberg (EDDN)

    Taf: TAF EDDN 141100Z 1412/1512 27025G45KT 9999 BKN025 TEMPO 1412/1415 SHRA BKN020TCU BECMG 1413/1415 26020G35KT BECMG 1416/1418 24012KT BECMG 1501/1503 14005KT TEMPO 1502/1505 RA BKN010 BECMG 1507/1509 24012KT TEMPO 1509/1512 26015G25KT SHRA BKN015TCU=

    Metar: METAR EDDN 141250Z 26010KT 9999 -SHRA FEW008 BKN016 BKN035 06/04 Q0997 R28/29//95 TEMPO 25030G45KT=

  • Rouen (LFOP)

    Taf: TAF LFOP 141100Z 1412/1512 22013KT 9999 BKN030 TEMPO 1412/1414 26020G35KT 3000 SHRA BKN020CB TEMPO 1420/1423 3000 RA BKN007 OVC013 TEMPO 1423/1506 23020G35KT 3000 SHRA BKN020CB=

    Metar: nil

  • Evreux (LFOE)

    Taf: TAF LFOE 132208Z 1322/1421 CNL=

    Metar: nil

  • Erfurt/Bindersleben (EDDE)

    Taf: TAF EDDE 141100Z 1412/1512 26025G40KT 9999 SCT015 BKN025 BECMG 1412/1415 26015G30KT TEMPO 1418/1422 20020G35KT BECMG 1422/1424 20012KT BECMG 1507/1510 26020G35KT=

    Metar: nil